sensor_id;sensor_type;location;lat;lon;timestamp;pressure;altitude;pressure_sealevel;temperature;humidity
42111;BME280;27766;52.174;5.456;2023-01-29T00:02:02;102915.84;;;2.16;100.00
42111;BME280;27766;52.174;5.456;2023-01-29T00:04:31;102900.91;;;2.10;100.00
42111;BME280;27766;52.174;5.456;2023-01-29T00:06:58;102910.75;;;2.16;100.00
42111;BME280;27766;52.174;5.456;2023-01-29T00:09:27;102898.88;;;2.16;100.00
42111;BME280;27766;52.174;5.456;2023-01-29T00:11:54;102901.44;;;2.16;100.00
42111;BME280;27766;52.174;5.456;2023-01-29T00:14:21;102897.34;;;2.18;100.00
42111;BME280;27766;52.174;5.456;2023-01-29T00:16:48;102888.91;;;2.19;100.00
42111;BME280;27766;52.174;5.456;2023-01-29T00:19:15;102879.44;;;2.18;100.00
42111;BME280;27766;52.174;5.456;2023-01-29T00:21:43;102882.91;;;2.19;100.00
42111;BME280;27766;52.174;5.456;2023-01-29T00:24:10;102872.56;;;2.17;100.00
42111;BME280;27766;52.174;5.456;2023-01-29T00:26:38;102875.38;;;2.20;100.00
42111;BME280;27766;52.174;5.456;2023-01-29T00:29:05;102871.78;;;2.18;100.00
42111;BME280;27766;52.174;5.456;2023-01-29T00:31:32;102875.38;;;2.20;100.00
42111;BME280;27766;52.174;5.456;2023-01-29T00:34:00;102874.34;;;2.18;100.00
42111;BME280;27766;52.174;5.456;2023-01-29T00:36:27;102878.69;;;2.19;100.00
42111;BME280;27766;52.174;5.456;2023-01-29T00:38:56;102880.47;;;2.20;100.00
42111;BME280;27766;52.174;5.456;2023-01-29T00:41:30;102879.44;;;2.18;100.00
42111;BME280;27766;52.174;5.456;2023-01-29T00:44:17;102878.69;;;2.19;100.00
42111;BME280;27766;52.174;5.456;2023-01-29T00:47:03;102880.47;;;2.20;100.00
42111;BME280;27766;52.174;5.456;2023-01-29T00:49:51;102859.53;;;2.14;100.00
42111;BME280;27766;52.174;5.456;2023-01-29T00:52:18;102872.69;;;2.19;100.00
42111;BME280;27766;52.174;5.456;2023-01-29T00:55:00;102870.00;;;2.17;100.00
42111;BME280;27766;52.174;5.456;2023-01-29T00:57:29;102868.63;;;2.21;100.00
42111;BME280;27766;52.174;5.456;2023-01-29T00:59:57;102863.13;;;2.16;100.00
42111;BME280;27766;52.174;5.456;2023-01-29T01:02:25;102868.22;;;2.16;100.00
42111;BME280;27766;52.174;5.456;2023-01-29T01:05:13;102856.97;;;2.14;100.00
42111;BME280;27766;52.174;5.456;2023-01-29T01:07:52;102857.72;;;2.13;100.00
42111;BME280;27766;52.174;5.456;2023-01-29T01:12:59;102861.03;;;2.12;100.00
42111;BME280;27766;52.174;5.456;2023-01-29T01:15:29;102859.25;;;2.11;100.00
42111;BME280;27766;52.174;5.456;2023-01-29T01:17:59;102849.66;;;2.09;100.00
42111;BME280;27766;52.174;5.456;2023-01-29T01:20:30;102846.34;;;2.10;100.00
42111;BME280;27766;52.174;5.456;2023-01-29T01:22:58;102843.28;;;2.03;100.00
42111;BME280;27766;52.174;5.456;2023-01-29T01:25:26;102852.09;;;2.07;100.00
42111;BME280;27766;52.174;5.456;2023-01-29T01:27:59;102845.31;;;2.08;100.00
42111;BME280;27766;52.174;5.456;2023-01-29T01:30:26;102854.66;;;2.07;100.00
42111;BME280;27766;52.174;5.456;2023-01-29T01:32:53;102858.09;;;2.08;100.00
42111;BME280;27766;52.174;5.456;2023-01-29T01:35:20;102860.66;;;2.08;100.00
42111;BME280;27766;52.174;5.456;2023-01-29T01:37:47;102870.00;;;2.07;100.00
42111;BME280;27766;52.174;5.456;2023-01-29T01:40:23;102863.19;;;2.08;100.00
42111;BME280;27766;52.174;5.456;2023-01-29T01:42:55;102867.56;;;2.09;100.00
42111;BME280;27766;52.174;5.456;2023-01-29T01:45:31;102874.34;;;2.08;100.00
42111;BME280;27766;52.174;5.456;2023-01-29T01:48:06;102871.78;;;2.08;100.00
42111;BME280;27766;52.174;5.456;2023-01-29T01:50:45;102869.22;;;2.08;100.00
42111;BME280;27766;52.174;5.456;2023-01-29T01:53:22;102868.31;;;2.08;100.00
42111;BME280;27766;52.174;5.456;2023-01-29T01:55:57;102871.78;;;2.08;100.00
42111;BME280;27766;52.174;5.456;2023-01-29T01:58:55;102872.81;;;2.10;100.00
42111;BME280;27766;52.174;5.456;2023-01-29T02:01:24;102860.81;;;2.09;100.00
42111;BME280;27766;52.174;5.456;2023-01-29T02:04:10;102858.09;;;2.08;100.00
42111;BME280;27766;52.174;5.456;2023-01-29T02:06:59;102857.50;;;2.10;100.00
42111;BME280;27766;52.174;5.456;2023-01-29T02:10:13;102857.97;;;2.06;100.00
42111;BME280;27766;52.174;5.456;2023-01-29T02:12:43;102861.28;;;2.05;100.00
42111;BME280;27766;52.174;5.456;2023-01-29T02:15:11;102870.88;;;2.08;100.00
42111;BME280;27766;52.174;5.456;2023-01-29T02:17:39;102869.88;;;2.05;100.00
42111;BME280;27766;52.174;5.456;2023-01-29T02:33:55;102872.81;;;2.10;100.00
42111;BME280;27766;52.174;5.456;2023-01-29T02:36:40;102878.81;;;2.11;100.00
42111;BME280;27766;52.174;5.456;2023-01-29T02:39:50;102877.94;;;2.10;100.00
42111;BME280;27766;52.174;5.456;2023-01-29T02:42:43;102879.69;;;2.11;100.00
42111;BME280;27766;52.174;5.456;2023-01-29T02:45:18;102879.56;;;2.10;100.00
42111;BME280;27766;52.174;5.456;2023-01-29T02:47:59;102891.31;;;2.08;100.00
42111;BME280;27766;52.174;5.456;2023-01-29T02:50:36;102883.66;;;2.08;100.00
42111;BME280;27766;52.174;5.456;2023-01-29T02:55:43;102883.53;;;2.06;100.00
42111;BME280;27766;52.174;5.456;2023-01-29T02:58:19;102888.16;;;2.10;100.00
42111;BME280;27766;52.174;5.456;2023-01-29T03:00:48;102878.69;;;2.09;100.00
42111;BME280;27766;52.174;5.456;2023-01-29T03:03:18;102889.03;;;2.11;100.00
42111;BME280;27766;52.174;5.456;2023-01-29T03:06:00;102876.38;;;2.12;100.00
42111;BME280;27766;52.174;5.456;2023-01-29T03:08:42;102877.13;;;2.11;100.00
42111;BME280;27766;52.174;5.456;2023-01-29T03:11:13;102862.84;;;2.03;100.00
42111;BME280;27766;52.174;5.456;2023-01-29T03:16:16;102853.13;;;2.09;100.00
42111;BME280;27766;52.174;5.456;2023-01-29T03:18:48;102849.56;;;2.07;100.00
42111;BME280;27766;52.174;5.456;2023-01-29T03:21:20;102850.19;;;2.04;100.00
42111;BME280;27766;52.174;5.456;2023-01-29T03:24:09;102845.97;;;2.05;100.00
42111;BME280;27766;52.174;5.456;2023-01-29T03:26:57;102844.16;;;2.04;100.00
42111;BME280;27766;52.174;5.456;2023-01-29T03:29:48;102844.97;;;2.03;100.00
42111;BME280;27766;52.174;5.456;2023-01-29T03:32:34;102838.94;;;2.02;100.00
42111;BME280;27766;52.174;5.456;2023-01-29T03:35:06;102837.16;;;2.01;100.00
42111;BME280;27766;52.174;5.456;2023-01-29T03:37:42;102831.91;;;2.00;100.00
42111;BME280;27766;52.174;5.456;2023-01-29T03:40:11;102820.66;;;1.98;100.00
42111;BME280;27766;52.174;5.456;2023-01-29T03:42:55;102817.34;;;1.99;100.00
42111;BME280;27766;52.174;5.456;2023-01-29T03:45:28;102816.59;;;2.00;100.00
42111;BME280;27766;52.174;5.456;2023-01-29T03:48:10;102811.22;;;1.97;100.00
42111;BME280;27766;52.174;5.456;2023-01-29T03:50:53;102807.00;;;1.97;100.00
42111;BME280;27766;52.174;5.456;2023-01-29T03:53:49;102807.50;;;1.93;100.00
42111;BME280;27766;52.174;5.456;2023-01-29T04:02:02;102803.53;;;1.97;100.00
42111;BME280;27766;52.174;5.456;2023-01-29T04:04:33;102808.41;;;1.94;100.00
42111;BME280;27766;52.174;5.456;2023-01-29T04:07:12;102803.31;;;1.94;100.00
42111;BME280;27766;52.174;5.456;2023-01-29T04:09:57;102785.69;;;1.86;100.00
42111;BME280;27766;52.174;5.456;2023-01-29T04:12:29;102794.72;;;1.93;100.00
42111;BME280;27766;52.174;5.456;2023-01-29T04:15:00;102792.19;;;1.93;100.00
42111;BME280;27766;52.174;5.456;2023-01-29T04:17:32;102797.16;;;1.92;100.00
42111;BME280;27766;52.174;5.456;2023-01-29T04:20:01;102786.94;;;1.92;100.00
42111;BME280;27766;52.174;5.456;2023-01-29T04:22:37;102787.81;;;1.92;100.00
42111;BME280;27766;52.174;5.456;2023-01-29T04:25:11;102787.72;;;1.90;100.00
42111;BME280;27766;52.174;5.456;2023-01-29T04:30:58;102791.03;;;1.89;100.00
42111;BME280;27766;52.174;5.456;2023-01-29T04:33:49;102779.00;;;1.88;100.00
42111;BME280;27766;52.174;5.456;2023-01-29T04:39:17;102781.56;;;1.88;100.00
42111;BME280;27766;52.174;5.456;2023-01-29T04:44:42;102781.56;;;1.88;100.00
42111;BME280;27766;52.174;5.456;2023-01-29T04:47:35;102782.34;;;1.87;100.00
42111;BME280;27766;52.174;5.456;2023-01-29T04:50:23;102776.97;;;1.84;100.00
42111;BME280;27766;52.174;5.456;2023-01-29T04:55:31;102767.53;;;1.83;100.00
42111;BME280;27766;52.174;5.456;2023-01-29T04:58:24;102768.03;;;1.79;100.00
42111;BME280;27766;52.174;5.456;2023-01-29T05:00:53;102751.41;;;1.74;100.00
42111;BME280;27766;52.174;5.456;2023-01-29T05:03:23;102766.09;;;1.77;100.00
42111;BME280;27766;52.174;5.456;2023-01-29T05:05:53;102753.72;;;1.71;100.00
42111;BME280;27766;52.174;5.456;2023-01-29T05:08:23;102756.41;;;1.72;100.00
42111;BME280;27766;52.174;5.456;2023-01-29T05:10:52;102758.56;;;1.68;100.00
42111;BME280;27766;52.174;5.456;2023-01-29T05:13:22;102757.94;;;1.70;100.00
42111;BME280;27766;52.174;5.456;2023-01-29T05:18:20;102755.53;;;1.72;100.00
42111;BME280;27766;52.174;5.456;2023-01-29T05:20:48;102759.72;;;1.71;100.00
42111;BME280;27766;52.174;5.456;2023-01-29T05:23:20;102759.59;;;1.70;100.00
42111;BME280;27766;52.174;5.456;2023-01-29T05:25:49;102762.03;;;1.68;100.00
42111;BME280;27766;52.174;5.456;2023-01-29T05:28:17;102769.69;;;1.68;100.00
42111;BME280;27766;52.174;5.456;2023-01-29T05:30:50;102769.69;;;1.68;100.00
42111;BME280;27766;52.174;5.456;2023-01-29T05:35:52;102768.13;;;1.70;100.00
42111;BME280;27766;52.174;5.456;2023-01-29T05:38:20;102763.78;;;1.69;100.00
42111;BME280;27766;52.174;5.456;2023-01-29T05:40:48;102767.75;;;1.66;100.00
42111;BME280;27766;52.174;5.456;2023-01-29T05:43:23;102769.13;;;1.62;100.00
42111;BME280;27766;52.174;5.456;2023-01-29T05:46:00;102775.91;;;1.62;100.00
42111;BME280;27766;52.174;5.456;2023-01-29T05:48:28;102784.34;;;1.61;100.00
42111;BME280;27766;52.174;5.456;2023-01-29T05:51:02;102775.00;;;1.61;100.00
42111;BME280;27766;52.174;5.456;2023-01-29T05:53:30;102774.25;;;1.62;100.00
42111;BME280;27766;52.174;5.456;2023-01-29T05:56:01;102754.97;;;1.66;100.00
42111;BME280;27766;52.174;5.456;2023-01-29T05:58:30;102749.00;;;1.65;100.00
42111;BME280;27766;52.174;5.456;2023-01-29T06:01:07;102742.22;;;1.66;100.00
42111;BME280;27766;52.174;5.456;2023-01-29T06:03:34;102739.66;;;1.66;100.00
42111;BME280;27766;52.174;5.456;2023-01-29T06:06:02;102734.84;;;1.69;100.00
42111;BME280;27766;52.174;5.456;2023-01-29T06:08:29;102734.56;;;1.66;100.00
42111;BME280;27766;52.174;5.456;2023-01-29T06:10:56;102736.09;;;1.64;100.00
42111;BME280;27766;52.174;5.456;2023-01-29T06:13:24;102724.97;;;1.63;100.00
42111;BME280;27766;52.174;5.456;2023-01-29T06:15:51;102735.34;;;1.65;100.00
42111;BME280;27766;52.174;5.456;2023-01-29T06:18:18;102733.56;;;1.64;100.00
42111;BME280;27766;52.174;5.456;2023-01-29T06:20:45;102730.84;;;1.62;100.00
42111;BME280;27766;52.174;5.456;2023-01-29T06:23:12;102730.09;;;1.63;100.00
42111;BME280;27766;52.174;5.456;2023-01-29T06:25:39;102731.59;;;1.61;100.00
42111;BME280;27766;52.174;5.456;2023-01-29T06:28:06;102721.28;;;1.60;100.00
42111;BME280;27766;52.174;5.456;2023-01-29T06:30:34;102720.25;;;1.57;100.00
42111;BME280;27766;52.174;5.456;2023-01-29T06:33:02;102721.16;;;1.58;100.00
42111;BME280;27766;52.174;5.456;2023-01-29T06:35:29;102711.81;;;1.58;100.00
42111;BME280;27766;52.174;5.456;2023-01-29T06:37:56;102710.03;;;1.57;100.00
42111;BME280;27766;52.174;5.456;2023-01-29T06:40:23;102714.25;;;1.57;100.00
42111;BME280;27766;52.174;5.456;2023-01-29T06:42:50;102725.34;;;1.57;100.00
42111;BME280;27766;52.174;5.456;2023-01-29T06:45:17;102718.59;;;1.58;100.00
42111;BME280;27766;52.174;5.456;2023-01-29T06:47:45;102720.00;;;1.54;100.00
42111;BME280;27766;52.174;5.456;2023-01-29T06:50:12;102720.25;;;1.57;100.00
42111;BME280;27766;52.174;5.456;2023-01-29T06:52:39;102712.88;;;1.61;100.00
42111;BME280;27766;52.174;5.456;2023-01-29T06:55:07;102717.09;;;1.60;100.00
42111;BME280;27766;52.174;5.456;2023-01-29T06:57:34;102716.06;;;1.58;100.00
42111;BME280;27766;52.174;5.456;2023-01-29T07:00:03;102724.09;;;1.63;100.00
42111;BME280;27766;52.174;5.456;2023-01-29T07:02:30;102720.03;;;1.65;100.00
42111;BME280;27766;52.174;5.456;2023-01-29T07:04:57;102718.34;;;1.65;100.00
42111;BME280;27766;52.174;5.456;2023-01-29T07:07:24;102716.06;;;1.68;100.00
42111;BME280;27766;52.174;5.456;2023-01-29T07:09:51;102733.03;;;1.68;100.00
42111;BME280;27766;52.174;5.456;2023-01-29T07:12:18;102715.94;;;1.67;100.00
42111;BME280;27766;52.174;5.456;2023-01-29T07:14:46;102717.72;;;1.68;100.00
42111;BME280;27766;52.174;5.456;2023-01-29T07:17:13;102714.94;;;1.65;100.00
42111;BME280;27766;52.174;5.456;2023-01-29T07:19:40;102709.19;;;1.67;100.00
42111;BME280;27766;52.174;5.456;2023-01-29T07:22:07;102723.47;;;1.65;100.00
42111;BME280;27766;52.174;5.456;2023-01-29T07:24:34;102712.09;;;1.62;100.00
42111;BME280;27766;52.174;5.456;2023-01-29T07:27:01;102709.31;;;1.69;100.00
42111;BME280;27766;52.174;5.456;2023-01-29T07:29:29;102716.06;;;1.68;100.00
42111;BME280;27766;52.174;5.456;2023-01-29T07:31:56;102716.69;;;1.66;100.00
42111;BME280;27766;52.174;5.456;2023-01-29T07:34:23;102715.94;;;1.67;100.00
42111;BME280;27766;52.174;5.456;2023-01-29T07:36:53;102710.19;;;1.69;100.00
42111;BME280;27766;52.174;5.456;2023-01-29T07:39:21;102711.09;;;1.70;100.00
42111;BME280;27766;52.174;5.456;2023-01-29T07:41:48;102708.41;;;1.68;100.00
42111;BME280;27766;52.174;5.456;2023-01-29T07:44:15;102700.75;;;1.68;100.00
42111;BME280;27766;52.174;5.456;2023-01-29T07:46:42;102701.63;;;1.69;100.00
42111;BME280;27766;52.174;5.456;2023-01-29T07:49:09;102696.41;;;1.67;100.00
42111;BME280;27766;52.174;5.456;2023-01-29T07:51:36;102688.00;;;1.68;100.00
42111;BME280;27766;52.174;5.456;2023-01-29T07:54:04;102691.53;;;1.70;100.00
42111;BME280;27766;52.174;5.456;2023-01-29T07:56:31;102677.13;;;1.71;100.00
42111;BME280;27766;52.174;5.456;2023-01-29T07:58:58;102672.28;;;1.74;100.00
42111;BME280;27766;52.174;5.456;2023-01-29T08:01:25;102675.59;;;1.73;100.00
42111;BME280;27766;52.174;5.456;2023-01-29T08:03:52;102673.94;;;1.73;100.00
42111;BME280;27766;52.174;5.456;2023-01-29T08:06:19;102675.84;;;1.76;100.00
42111;BME280;27766;52.174;5.456;2023-01-29T08:08:46;102675.84;;;1.76;100.00
42111;BME280;27766;52.174;5.456;2023-01-29T08:11:13;102682.00;;;1.78;100.00
42111;BME280;27766;52.174;5.456;2023-01-29T08:13:41;102678.69;;;1.79;100.00
42111;BME280;27766;52.174;5.456;2023-01-29T08:16:08;102674.84;;;1.84;100.00
42111;BME280;27766;52.174;5.456;2023-01-29T08:18:36;102676.34;;;1.82;100.00
42111;BME280;27766;52.174;5.456;2023-01-29T08:21:03;102677.28;;;1.83;100.00
42111;BME280;27766;52.174;5.456;2023-01-29T08:23:31;102679.94;;;1.84;100.00
42111;BME280;27766;52.174;5.456;2023-01-29T08:25:58;102679.94;;;1.84;100.00
42111;BME280;27766;52.174;5.456;2023-01-29T08:28:25;102674.84;;;1.84;100.00
42111;BME280;27766;52.174;5.456;2023-01-29T08:30:52;102662.81;;;1.83;100.00
42111;BME280;27766;52.174;5.456;2023-01-29T08:33:20;102661.53;;;1.88;100.00
42111;BME280;27766;52.174;5.456;2023-01-29T08:35:59;102664.63;;;1.95;100.00
42111;BME280;27766;52.174;5.456;2023-01-29T08:38:26;102656.16;;;1.96;100.00
42111;BME280;27766;52.174;5.456;2023-01-29T08:40:54;102652.84;;;1.97;100.00
42111;BME280;27766;52.174;5.456;2023-01-29T08:43:21;102654.63;;;1.98;100.00
42111;BME280;27766;52.174;5.456;2023-01-29T08:45:48;102648.13;;;2.01;100.00
42111;BME280;27766;52.174;5.456;2023-01-29T08:48:15;102649.16;;;2.03;100.00
42111;BME280;27766;52.174;5.456;2023-01-29T08:50:42;102651.06;;;2.06;100.00
42111;BME280;27766;52.174;5.456;2023-01-29T08:53:09;102643.28;;;2.04;100.00
42111;BME280;27766;52.174;5.456;2023-01-29T08:55:37;102647.84;;;2.09;100.00
42111;BME280;27766;52.174;5.456;2023-01-29T08:58:06;102641.09;;;2.09;100.00
42111;BME280;27766;52.174;5.456;2023-01-29T09:00:34;102636.22;;;2.12;100.00
42111;BME280;27766;52.174;5.456;2023-01-29T09:03:02;102648.13;;;2.12;100.00
42111;BME280;27766;52.174;5.456;2023-01-29T09:05:30;102640.56;;;2.13;100.00
42111;BME280;27766;52.174;5.456;2023-01-29T09:07:57;102640.69;;;2.15;100.00
42111;BME280;27766;52.174;5.456;2023-01-29T09:10:24;102641.81;;;2.18;100.00
42111;BME280;27766;52.174;5.456;2023-01-29T09:12:52;102641.81;;;2.18;100.00
42111;BME280;27766;52.174;5.456;2023-01-29T09:15:19;102641.06;;;2.19;100.00
42111;BME280;27766;52.174;5.456;2023-01-29T09:17:46;102638.75;;;2.22;100.00
42111;BME280;27766;52.174;5.456;2023-01-29T09:20:16;102633.75;;;2.24;100.00
42111;BME280;27766;52.174;5.456;2023-01-29T09:22:44;102633.91;;;2.26;100.00
42111;BME280;27766;52.174;5.456;2023-01-29T09:25:12;102652.56;;;2.25;100.00
42111;BME280;27766;52.174;5.456;2023-01-29T09:27:39;102642.47;;;2.26;100.00
42111;BME280;27766;52.174;5.456;2023-01-29T09:30:06;102639.25;;;2.29;100.00
42111;BME280;27766;52.174;5.456;2023-01-29T09:32:34;102646.41;;;2.33;100.00
42111;BME280;27766;52.174;5.456;2023-01-29T09:35:22;102631.69;;;2.30;100.00
42111;BME280;27766;52.174;5.456;2023-01-29T09:37:50;102646.91;;;2.39;100.00
42111;BME280;27766;52.174;5.456;2023-01-29T09:43:17;102641.91;;;2.41;100.00
42111;BME280;27766;52.174;5.456;2023-01-29T09:45:54;102645.38;;;2.41;100.00
42111;BME280;27766;52.174;5.456;2023-01-29T09:48:26;102644.47;;;2.41;100.00
42111;BME280;27766;52.174;5.456;2023-01-29T09:50:57;102642.00;;;2.42;100.00
42111;BME280;27766;52.174;5.456;2023-01-29T09:56:04;102647.38;;;2.45;100.00
42111;BME280;27766;52.174;5.456;2023-01-29T09:58:35;102647.66;;;2.38;100.00
42111;BME280;27766;52.174;5.456;2023-01-29T10:09:54;102632.53;;;2.51;100.00
42111;BME280;27766;52.174;5.456;2023-01-29T10:12:46;102631.50;;;2.49;100.00
42111;BME280;27766;52.174;5.456;2023-01-29T10:15:25;102627.41;;;2.51;100.00
42111;BME280;27766;52.174;5.456;2023-01-29T10:18:15;102629.88;;;2.50;100.00
42111;BME280;27766;52.174;5.456;2023-01-29T10:23:30;102626.00;;;2.55;100.00
42111;BME280;27766;52.174;5.456;2023-01-29T10:26:00;102606.97;;;2.51;100.00
42111;BME280;27766;52.174;5.456;2023-01-29T10:31:07;102605.69;;;2.57;100.00
42111;BME280;27766;52.174;5.456;2023-01-29T10:33:39;102604.00;;;2.57;100.00
42111;BME280;27766;52.174;5.456;2023-01-29T10:36:40;102599.00;;;2.59;100.00
42111;BME280;27766;52.174;5.456;2023-01-29T10:39:21;102588.00;;;2.60;100.00
42111;BME280;27766;52.174;5.456;2023-01-29T10:42:12;102591.03;;;2.66;100.00
42111;BME280;27766;52.174;5.456;2023-01-29T10:45:11;102587.97;;;2.70;100.00
42111;BME280;27766;52.174;5.456;2023-01-29T10:50:33;102583.06;;;2.73;100.00
42111;BME280;27766;52.174;5.456;2023-01-29T10:53:15;102578.22;;;2.76;100.00
42111;BME280;27766;52.174;5.456;2023-01-29T10:56:00;102572.22;;;2.76;100.00
42111;BME280;27766;52.174;5.456;2023-01-29T10:58:49;102573.00;;;2.75;100.00
42111;BME280;27766;52.174;5.456;2023-01-29T11:01:17;102572.22;;;2.76;100.00
42111;BME280;27766;52.174;5.456;2023-01-29T11:03:45;102564.41;;;2.74;100.00
42111;BME280;27766;52.174;5.456;2023-01-29T11:06:23;102562.63;;;2.73;100.00
42111;BME280;27766;52.174;5.456;2023-01-29T11:14:51;102547.13;;;2.82;100.00
42111;BME280;27766;52.174;5.456;2023-01-29T11:17:21;102544.41;;;2.80;100.00
42111;BME280;27766;52.174;5.456;2023-01-29T11:19:51;102539.31;;;2.80;100.00
42111;BME280;27766;52.174;5.456;2023-01-29T11:22:23;102543.00;;;2.84;100.00
42111;BME280;27766;52.174;5.456;2023-01-29T11:25:15;102548.25;;;2.85;100.00
42111;BME280;27766;52.174;5.456;2023-01-29T11:27:48;102539.66;;;2.85;100.00
42111;BME280;27766;52.174;5.456;2023-01-29T11:30:26;102541.44;;;2.86;100.00
42111;BME280;27766;52.174;5.456;2023-01-29T11:33:08;102533.88;;;2.88;100.00
42111;BME280;27766;52.174;5.456;2023-01-29T11:35:36;102520.16;;;2.75;100.00
42111;BME280;27766;52.174;5.456;2023-01-29T11:38:20;102526.88;;;2.85;100.00
42111;BME280;27766;52.174;5.456;2023-01-29T11:40:48;102531.31;;;2.88;100.00
42111;BME280;27766;52.174;5.456;2023-01-29T11:45:47;102510.94;;;2.77;100.00
42111;BME280;27766;52.174;5.456;2023-01-29T11:48:17;102523.34;;;2.83;100.00
42111;BME280;27766;52.174;5.456;2023-01-29T11:50:57;102515.50;;;2.81;100.00
42111;BME280;27766;52.174;5.456;2023-01-29T11:53:35;102516.78;;;2.87;100.00
42111;BME280;27766;52.174;5.456;2023-01-29T11:56:30;102514.22;;;2.87;100.00
42111;BME280;27766;52.174;5.456;2023-01-29T11:58:55;102513.56;;;2.89;100.00
42111;BME280;27766;52.174;5.456;2023-01-29T12:01:34;102499.84;;;2.89;100.00
42111;BME280;27766;52.174;5.456;2023-01-29T12:04:28;102499.66;;;2.85;100.00
42111;BME280;27766;52.174;5.456;2023-01-29T12:06:57;102487.94;;;2.77;100.00
42111;BME280;27766;52.174;5.456;2023-01-29T12:09:25;102489.72;;;2.78;100.00
42111;BME280;27766;52.174;5.456;2023-01-29T12:11:54;102480.03;;;2.74;100.00
42111;BME280;27766;52.174;5.456;2023-01-29T12:14:28;102474.91;;;2.74;100.00
42111;BME280;27766;52.174;5.456;2023-01-29T12:19:51;102465.44;;;2.73;100.00
42111;BME280;27766;52.174;5.456;2023-01-29T12:25:42;102444.56;;;2.79;100.00
42111;BME280;27766;52.174;5.456;2023-01-29T12:28:33;102443.91;;;2.81;100.00
42111;BME280;27766;52.174;5.456;2023-01-29T12:34:13;102435.47;;;2.82;100.00
42111;BME280;27766;52.174;5.456;2023-01-29T12:39:19;102441.69;;;2.86;100.00
42111;BME280;27766;52.174;5.456;2023-01-29T12:41:56;102433.91;;;2.84;100.00
42111;BME280;27766;52.174;5.456;2023-01-29T12:44:39;102415.34;;;2.87;100.00
42111;BME280;27766;52.174;5.456;2023-01-29T12:49:46;102401.44;;;2.83;100.00
42111;BME280;27766;52.174;5.456;2023-01-29T12:52:23;102389.88;;;2.89;100.00
42111;BME280;27766;52.174;5.456;2023-01-29T12:54:58;102390.88;;;2.91;100.00
42111;BME280;27766;52.174;5.456;2023-01-29T13:00:15;102372.31;;;2.93;100.00
42111;BME280;27766;52.174;5.456;2023-01-29T13:02:53;102360.28;;;2.92;100.00
42111;BME280;27766;52.174;5.456;2023-01-29T13:05:33;102354.31;;;2.92;100.00
42111;BME280;27766;52.174;5.456;2023-01-29T13:08:25;102343.06;;;2.90;100.00
42111;BME280;27766;52.174;5.456;2023-01-29T13:10:54;102341.53;;;2.92;100.00
42111;BME280;27766;52.174;5.456;2023-01-29T13:13:26;102334.97;;;2.95;100.00
42111;BME280;27766;52.174;5.456;2023-01-29T13:15:55;102322.16;;;2.95;100.00
42111;BME280;27766;52.174;5.456;2023-01-29T13:21:00;102300.25;;;2.99;100.00
42111;BME280;27766;52.174;5.456;2023-01-29T13:23:39;102287.69;;;3.02;100.00
42111;BME280;27766;52.174;5.456;2023-01-29T13:26:08;102285.78;;;3.11;100.00
42111;BME280;27766;52.174;5.456;2023-01-29T13:28:36;102285.44;;;3.19;100.00
42111;BME280;27766;52.174;5.456;2023-01-29T13:33:40;102282.66;;;3.27;100.00
42111;BME280;27766;52.174;5.456;2023-01-29T13:36:14;102272.75;;;3.32;100.00
42111;BME280;27766;52.174;5.456;2023-01-29T13:38:42;102265.94;;;3.32;100.00
42111;BME280;27766;52.174;5.456;2023-01-29T13:41:11;102274.81;;;3.38;100.00
42111;BME280;27766;52.174;5.456;2023-01-29T13:43:41;102267.72;;;3.33;100.00
42111;BME280;27766;52.174;5.456;2023-01-29T13:46:14;102269.59;;;3.36;100.00
42111;BME280;27766;52.174;5.456;2023-01-29T13:48:45;102263.63;;;3.36;100.00
42111;BME280;27766;52.174;5.456;2023-01-29T13:51:18;102265.28;;;3.35;100.00
42111;BME280;27766;52.174;5.456;2023-01-29T13:54:02;102268.75;;;3.36;100.00
42111;BME280;27766;52.174;5.456;2023-01-29T13:59:00;102259.03;;;3.31;100.00
42111;BME280;27766;52.174;5.456;2023-01-29T14:06:53;102264.13;;;3.43;100.00
42111;BME280;27766;52.174;5.456;2023-01-29T14:12:12;102259.25;;;3.46;100.00
42111;BME280;27766;52.174;5.456;2023-01-29T14:17:21;102250.88;;;3.49;100.00
42111;BME280;27766;52.174;5.456;2023-01-29T14:19:56;102249.44;;;3.53;100.00
42111;BME280;27766;52.174;5.456;2023-01-29T14:22:28;102231.97;;;3.47;100.00
42111;BME280;27766;52.174;5.456;2023-01-29T14:25:00;102239.41;;;3.56;100.00
42111;BME280;27766;52.174;5.456;2023-01-29T14:27:28;102224.50;;;3.50;100.00
42111;BME280;27766;52.174;5.456;2023-01-29T14:30:06;102236.94;;;3.57;100.00
42111;BME280;27766;52.174;5.456;2023-01-29T14:32:38;102243.25;;;3.62;100.00
42111;BME280;27766;52.174;5.456;2023-01-29T14:35:21;102223.09;;;3.67;100.00
42111;BME280;27766;52.174;5.456;2023-01-29T14:37:50;102230.00;;;3.68;100.00
42111;BME280;27766;52.174;5.456;2023-01-29T14:40:20;102220.63;;;3.69;100.00
42111;BME280;27766;52.174;5.456;2023-01-29T14:43:04;102220.84;;;3.72;100.00
42111;BME280;27766;52.174;5.456;2023-01-29T14:45:37;102221.72;;;3.72;100.00
42111;BME280;27766;52.174;5.456;2023-01-29T14:56:02;102211.47;;;3.72;100.00
42111;BME280;27766;52.174;5.456;2023-01-29T14:58:33;102207.25;;;3.73;100.00
42111;BME280;27766;52.174;5.456;2023-01-29T15:01:05;102211.47;;;3.72;100.00
42111;BME280;27766;52.174;5.456;2023-01-29T15:03:42;102199.59;;;3.73;100.00
42111;BME280;27766;52.174;5.456;2023-01-29T15:06:16;102190.22;;;3.73;100.00
42111;BME280;27766;52.174;5.456;2023-01-29T15:11:47;102179.09;;;3.73;100.00
42111;BME280;27766;52.174;5.456;2023-01-29T15:14:46;102185.09;;;3.73;100.00
42111;BME280;27766;52.174;5.456;2023-01-29T15:17:48;102180.19;;;3.76;100.00
42111;BME280;27766;52.174;5.456;2023-01-29T15:23:01;102182.66;;;3.75;100.00
42111;BME280;27766;52.174;5.456;2023-01-29T15:25:36;102190.22;;;3.73;100.00